createdAt,value
2022-10-17T00:00:29.411Z,40.60
2022-10-17T00:02:55.963Z,40.70
2022-10-17T00:05:22.464Z,40.60
2022-10-17T00:07:48.659Z,40.60
2022-10-17T00:10:15.048Z,40.70
2022-10-17T00:12:41.187Z,40.60
2022-10-17T00:15:07.947Z,40.60
2022-10-17T00:17:35.011Z,40.70
2022-10-17T00:20:01.714Z,41.30
2022-10-17T00:22:28.346Z,40.70
2022-10-17T00:24:54.662Z,40.70
2022-10-17T00:27:21.244Z,40.70
2022-10-17T00:29:51.357Z,40.60
2022-10-17T00:32:18.542Z,40.70
2022-10-17T00:34:44.829Z,40.60
2022-10-17T00:37:11.251Z,40.70
2022-10-17T00:39:38.178Z,40.70
2022-10-17T00:42:04.732Z,40.60
2022-10-17T00:44:31.016Z,40.60
2022-10-17T00:46:58.927Z,40.70
2022-10-17T00:49:29.663Z,40.70
2022-10-17T00:51:59.455Z,40.60
2022-10-17T00:54:33.313Z,40.60
2022-10-17T00:57:00.321Z,40.70
2022-10-17T00:59:28.993Z,40.60
2022-10-17T01:02:07.875Z,40.60
2022-10-17T01:04:39.554Z,40.60
2022-10-17T01:07:05.762Z,40.60
2022-10-17T01:09:32.744Z,40.60
2022-10-17T01:12:30.688Z,40.70
2022-10-17T01:15:14.381Z,40.60
2022-10-17T01:18:00.990Z,40.60
2022-10-17T01:20:47.361Z,40.70
2022-10-17T01:23:54.819Z,40.70
2022-10-17T01:26:49.879Z,40.70
2022-10-17T01:29:50.743Z,40.60
2022-10-17T01:32:25.268Z,40.70
2022-10-17T01:34:59.515Z,40.70
2022-10-17T01:37:47.974Z,40.60
2022-10-17T01:40:32.818Z,40.70
2022-10-17T01:43:20.859Z,40.60
2022-10-17T01:45:56.807Z,40.60
2022-10-17T01:48:27.855Z,40.60
2022-10-17T01:51:03.285Z,40.60
2022-10-17T01:53:35.646Z,40.70
2022-10-17T01:56:04.093Z,40.60
2022-10-17T01:58:59.330Z,40.70
2022-10-17T02:01:28.785Z,40.60
2022-10-17T02:03:55.678Z,40.60
2022-10-17T02:06:21.991Z,40.60
2022-10-17T02:08:50.502Z,40.60
2022-10-17T02:11:18.430Z,40.70
2022-10-17T02:14:02.704Z,40.60
2022-10-17T02:16:41.525Z,40.60
2022-10-17T02:19:28.756Z,40.60
2022-10-17T02:21:54.909Z,40.60
2022-10-17T02:24:51.937Z,40.70
2022-10-17T02:27:39.311Z,40.60
2022-10-17T02:30:13.940Z,40.60
2022-10-17T02:32:52.403Z,40.60
2022-10-17T02:35:20.971Z,41.20
2022-10-17T02:37:48.184Z,40.60
2022-10-17T02:40:19.775Z,40.60
2022-10-17T02:42:46.301Z,41.30
2022-10-17T02:45:14.538Z,40.70
2022-10-17T02:47:58.465Z,40.70
2022-10-17T02:50:51.712Z,40.70
2022-10-17T02:53:27.511Z,40.70
2022-10-17T02:55:59.228Z,40.60
2022-10-17T02:58:32.619Z,40.60
2022-10-17T03:01:00.100Z,40.60
2022-10-17T03:03:30.360Z,40.60
2022-10-17T03:05:57.002Z,40.60
2022-10-17T03:08:23.803Z,40.60
2022-10-17T03:10:51.239Z,40.60
2022-10-17T03:13:17.752Z,40.60
2022-10-17T03:15:43.966Z,40.60
2022-10-17T03:18:10.203Z,40.60
2022-10-17T03:20:38.448Z,40.60
2022-10-17T03:23:04.553Z,40.70
2022-10-17T03:25:30.671Z,40.60
2022-10-17T03:28:01.106Z,40.60
2022-10-17T03:30:28.548Z,40.60
2022-10-17T03:32:54.743Z,40.60
2022-10-17T03:35:20.991Z,40.60
2022-10-17T03:37:47.239Z,40.60
2022-10-17T03:40:13.605Z,40.60
2022-10-17T03:42:39.842Z,40.60
2022-10-17T03:45:06.166Z,40.60
2022-10-17T03:47:32.734Z,40.60
2022-10-17T03:49:58.985Z,40.60
2022-10-17T03:52:25.055Z,40.60
2022-10-17T03:54:51.533Z,40.60
2022-10-17T03:57:18.947Z,40.60
2022-10-17T03:59:45.033Z,40.60
2022-10-17T04:02:11.317Z,40.60
2022-10-17T04:04:37.503Z,40.60
2022-10-17T04:07:03.634Z,40.60
2022-10-17T04:09:29.907Z,40.60
2022-10-17T04:11:56.007Z,40.60
2022-10-17T04:14:22.572Z,40.60
2022-10-17T04:16:49.055Z,40.60
2022-10-17T04:19:15.214Z,40.60
2022-10-17T04:21:41.334Z,40.60
2022-10-17T04:24:11.195Z,40.60
2022-10-17T04:26:37.533Z,40.60
2022-10-17T04:29:03.748Z,40.60
2022-10-17T04:31:29.840Z,40.60
2022-10-17T04:33:56.166Z,40.60
2022-10-17T04:36:22.911Z,40.60
2022-10-17T04:38:48.959Z,40.60
2022-10-17T04:41:18.188Z,40.60
2022-10-17T04:43:47.011Z,40.60
2022-10-17T04:46:16.486Z,40.60
2022-10-17T04:48:42.677Z,40.60
2022-10-17T04:51:14.825Z,40.50
2022-10-17T04:53:41.896Z,40.60
2022-10-17T04:56:17.397Z,40.60
2022-10-17T04:58:44.776Z,40.60
2022-10-17T05:01:16.654Z,40.60
2022-10-17T05:03:43.141Z,40.80
2022-10-17T05:06:13.643Z,40.90
2022-10-17T05:08:40.100Z,41.00
2022-10-17T05:11:14.523Z,41.00
2022-10-17T05:13:40.582Z,41.10
2022-10-17T05:16:06.895Z,41.20
2022-10-17T05:18:33.157Z,41.90
2022-10-17T05:20:59.322Z,41.30
2022-10-17T05:23:25.466Z,41.50
2022-10-17T05:25:55.407Z,41.50
2022-10-17T05:28:22.603Z,41.60
2022-10-17T05:30:50.089Z,41.80
2022-10-17T05:33:16.511Z,41.90
2022-10-17T05:35:42.639Z,41.90
2022-10-17T05:38:08.856Z,42.00
2022-10-17T05:40:35.131Z,42.00
2022-10-17T05:43:01.275Z,42.10
2022-10-17T05:45:27.378Z,42.20
2022-10-17T05:47:53.613Z,42.20
2022-10-17T05:50:21.375Z,42.30
2022-10-17T05:52:47.707Z,42.20
2022-10-17T05:55:13.870Z,42.30
2022-10-17T05:57:40.366Z,42.30
2022-10-17T06:00:07.210Z,42.30
2022-10-17T06:02:33.747Z,42.40
2022-10-17T06:05:00.059Z,42.50
2022-10-17T06:07:26.240Z,42.50
2022-10-17T06:09:52.469Z,42.50
2022-10-17T06:12:18.737Z,42.60
2022-10-17T06:14:44.968Z,42.60
2022-10-17T06:17:15.759Z,42.70
2022-10-17T06:19:43.843Z,42.80
2022-10-17T06:22:10.111Z,42.80
2022-10-17T06:24:36.208Z,42.80
2022-10-17T06:27:02.459Z,42.90
2022-10-17T06:29:28.783Z,42.90
2022-10-17T06:31:54.898Z,42.90
2022-10-17T06:34:20.988Z,42.90
2022-10-17T06:36:47.351Z,42.90
2022-10-17T06:39:13.524Z,42.80
2022-10-17T06:41:40.787Z,42.90
2022-10-17T06:44:12.990Z,42.90
2022-10-17T06:46:39.586Z,43.00
2022-10-17T06:49:06.079Z,43.10
2022-10-17T06:51:35.583Z,43.10
2022-10-17T06:54:01.715Z,43.10
2022-10-17T06:56:27.893Z,43.30
2022-10-17T06:58:54.159Z,43.20
2022-10-17T07:01:20.556Z,43.30
2022-10-17T07:03:49.563Z,43.40
2022-10-17T07:06:15.851Z,43.40
2022-10-17T07:08:44.045Z,43.50
2022-10-17T07:11:15.076Z,43.50
2022-10-17T07:13:41.611Z,43.60
2022-10-17T07:16:08.469Z,44.20
2022-10-17T07:18:34.856Z,43.60
2022-10-17T07:21:03.329Z,43.70
2022-10-17T07:23:29.684Z,43.80
2022-10-17T07:26:00.703Z,43.80
2022-10-17T07:28:28.204Z,43.90
2022-10-17T07:30:54.751Z,43.90
2022-10-17T07:33:20.845Z,43.90
2022-10-17T07:35:46.967Z,44.50
2022-10-17T07:38:13.178Z,44.00
2022-10-17T07:40:39.213Z,44.00
2022-10-17T07:43:05.337Z,44.00
2022-10-17T07:45:31.423Z,44.70
2022-10-17T07:47:58.870Z,44.10
2022-10-17T07:50:25.013Z,44.10
2022-10-17T07:52:51.125Z,44.20
2022-10-17T07:55:17.218Z,44.20
2022-10-17T07:57:43.892Z,44.20
2022-10-17T08:00:10.502Z,44.30
2022-10-17T08:02:36.585Z,44.40
2022-10-17T08:05:02.882Z,45.00
2022-10-17T08:07:30.001Z,44.40
2022-10-17T08:09:56.198Z,44.40
2022-10-17T08:12:22.289Z,44.40
2022-10-17T08:14:48.353Z,44.40
2022-10-17T08:17:14.622Z,44.50
2022-10-17T08:19:40.794Z,44.50
2022-10-17T08:22:08.092Z,44.60
2022-10-17T08:24:34.267Z,44.60
2022-10-17T08:27:00.644Z,44.70
2022-10-17T08:29:27.128Z,44.60
2022-10-17T08:31:58.506Z,44.60
2022-10-17T08:34:27.694Z,44.70
2022-10-17T08:36:53.856Z,44.70
2022-10-17T08:39:20.039Z,44.60
2022-10-17T08:41:59.114Z,44.70
2022-10-17T08:44:36.206Z,44.80
2022-10-17T08:47:05.535Z,44.80
2022-10-17T08:49:40.137Z,44.80
2022-10-17T08:52:27.003Z,44.90
2022-10-17T08:54:53.165Z,44.80
2022-10-17T08:57:19.449Z,45.00
2022-10-17T08:59:51.706Z,45.50
2022-10-17T09:02:43.127Z,44.80
2022-10-17T09:05:41.293Z,44.90
2022-10-17T09:08:34.592Z,44.90
2022-10-17T09:11:26.668Z,45.00
2022-10-17T09:14:44.310Z,45.00
2022-10-17T09:17:39.698Z,45.00
2022-10-17T09:20:19.409Z,45.10
2022-10-17T09:25:23.713Z,45.20
2022-10-17T09:27:55.453Z,45.30
2022-10-17T09:30:43.657Z,45.30
2022-10-17T09:33:28.526Z,45.30
2022-10-17T09:36:29.297Z,45.40
2022-10-17T09:38:58.202Z,45.50
2022-10-17T09:41:45.506Z,45.60
2022-10-17T09:44:30.779Z,45.60
2022-10-17T09:47:22.723Z,45.80
2022-10-17T09:49:49.975Z,45.70
2022-10-17T09:52:27.990Z,45.80
2022-10-17T09:55:01.170Z,45.90
2022-10-17T09:57:27.706Z,45.90
2022-10-17T10:00:03.582Z,46.00
2022-10-17T10:02:33.052Z,46.00
2022-10-17T10:05:17.726Z,46.10
2022-10-17T10:07:59.749Z,46.10
2022-10-17T10:10:28.119Z,46.10
2022-10-17T10:13:04.978Z,46.10
2022-10-17T10:15:35.565Z,46.20
2022-10-17T10:18:02.461Z,46.20
2022-10-17T10:20:30.442Z,46.20
2022-10-17T10:23:17.608Z,46.90
2022-10-17T10:25:58.230Z,46.20
2022-10-17T10:28:32.411Z,46.30
2022-10-17T10:31:06.809Z,46.20
2022-10-17T10:33:40.392Z,46.20
2022-10-17T10:36:09.200Z,46.20
2022-10-17T10:38:39.995Z,46.10
2022-10-17T10:41:10.637Z,46.20
2022-10-17T10:43:44.667Z,46.30
2022-10-17T10:46:20.498Z,46.40
2022-10-17T10:49:24.808Z,46.40
2022-10-17T10:51:51.679Z,46.50
2022-10-17T10:54:25.857Z,46.50
2022-10-17T10:57:00.075Z,46.60
2022-10-17T10:59:35.593Z,46.60
2022-10-17T11:02:14.891Z,46.70
2022-10-17T11:04:50.805Z,46.70
2022-10-17T11:07:22.090Z,46.70
2022-10-17T11:10:13.294Z,46.70
2022-10-17T11:13:02.932Z,46.70
2022-10-17T11:15:44.517Z,46.80
2022-10-17T11:18:45.853Z,46.80
2022-10-17T11:21:19.366Z,46.80
2022-10-17T11:23:59.575Z,46.80
2022-10-17T11:26:29.087Z,46.90
2022-10-17T11:29:07.231Z,46.90
2022-10-17T11:31:41.482Z,46.90
2022-10-17T11:34:20.228Z,46.90
2022-10-17T11:36:50.123Z,47.00
2022-10-17T11:39:21.331Z,47.00
2022-10-17T11:42:06.500Z,47.00
2022-10-17T11:44:36.504Z,47.00
2022-10-17T11:47:33.681Z,47.00
2022-10-17T11:51:59.852Z,47.00
2022-10-17T11:53:01.133Z,47.00
2022-10-17T11:55:30.090Z,47.00
2022-10-17T11:58:26.793Z,47.10
2022-10-17T12:01:29.852Z,47.10
2022-10-17T12:04:17.863Z,47.10
2022-10-17T12:07:10.266Z,47.20
2022-10-17T12:10:05.599Z,47.20
2022-10-17T12:12:37.606Z,47.20
2022-10-17T12:15:12.505Z,47.20
2022-10-17T12:17:46.277Z,47.30
2022-10-17T12:20:23.997Z,47.30
2022-10-17T12:22:55.550Z,47.30
2022-10-17T12:25:34.153Z,47.30
2022-10-17T12:28:12.720Z,47.40
2022-10-17T12:30:59.825Z,47.40
2022-10-17T12:33:36.983Z,47.40
2022-10-17T12:36:18.121Z,47.50
2022-10-17T12:38:50.012Z,47.40
2022-10-17T12:41:37.338Z,47.40
2022-10-17T12:44:12.311Z,47.50
2022-10-17T12:46:55.218Z,47.50
2022-10-17T12:49:41.649Z,47.60
2022-10-17T12:52:16.727Z,47.60
2022-10-17T12:55:14.700Z,47.60
2022-10-17T12:58:02.869Z,47.70
2022-10-17T13:01:05.149Z,47.70
2022-10-17T13:03:43.653Z,47.70
2022-10-17T13:06:20.425Z,47.70
2022-10-17T13:08:56.125Z,47.70
2022-10-17T13:11:27.479Z,47.70
2022-10-17T13:13:56.669Z,47.80
2022-10-17T13:16:34.047Z,47.80
2022-10-17T13:19:02.649Z,47.80
2022-10-17T13:21:29.314Z,47.80
2022-10-17T13:23:55.490Z,47.90
2022-10-17T13:26:25.416Z,47.90
2022-10-17T13:29:12.796Z,47.90
2022-10-17T13:31:41.764Z,47.90
2022-10-17T13:34:19.551Z,47.90
2022-10-17T13:36:59.526Z,47.90
2022-10-17T13:39:44.912Z,47.90
2022-10-17T13:42:30.140Z,48.00
2022-10-17T13:44:57.942Z,48.00
2022-10-17T13:47:29.957Z,48.00
2022-10-17T13:50:00.544Z,48.70
2022-10-17T13:52:29.334Z,48.10
2022-10-17T13:55:09.643Z,48.70
2022-10-17T13:57:35.826Z,48.10
2022-10-17T14:00:11.734Z,48.10
2022-10-17T14:02:40.775Z,48.10
2022-10-17T14:05:18.918Z,48.20
2022-10-17T14:10:41.519Z,48.20
2022-10-17T14:13:19.907Z,48.20
2022-10-17T14:15:46.564Z,48.20
2022-10-17T14:18:26.845Z,48.20
2022-10-17T14:23:43.015Z,48.20
2022-10-17T14:26:11.074Z,48.20
2022-10-17T14:28:39.381Z,48.20
2022-10-17T14:31:21.529Z,48.20
2022-10-17T14:33:50.873Z,48.20
2022-10-17T14:36:18.666Z,48.20
2022-10-17T14:38:51.247Z,48.30
2022-10-17T14:41:43.820Z,48.20
2022-10-17T14:44:23.479Z,48.30
2022-10-17T14:46:58.897Z,48.20
2022-10-17T14:49:40.310Z,48.20
2022-10-17T14:52:25.111Z,48.20
2022-10-17T14:54:51.704Z,48.20
2022-10-17T14:57:32.657Z,48.10
2022-10-17T14:59:58.788Z,48.10
2022-10-17T15:02:27.211Z,48.20
2022-10-17T15:04:54.119Z,48.20
2022-10-17T15:07:21.548Z,48.20
2022-10-17T15:09:50.190Z,48.20
2022-10-17T15:12:22.645Z,48.20
2022-10-17T15:14:49.925Z,48.20
2022-10-17T15:17:20.037Z,48.20
2022-10-17T15:19:46.846Z,48.20
2022-10-17T15:22:14.098Z,48.20
2022-10-17T15:24:40.262Z,48.30
2022-10-17T15:27:14.309Z,48.20
2022-10-17T15:29:40.424Z,48.20
2022-10-17T15:32:06.603Z,48.30
2022-10-17T15:34:32.748Z,48.30
2022-10-17T15:36:58.912Z,48.30
2022-10-17T15:39:25.331Z,48.20
2022-10-17T15:41:51.635Z,48.20
2022-10-17T15:44:17.744Z,48.20
2022-10-17T15:46:44.428Z,48.20
2022-10-17T15:49:13.289Z,48.20
2022-10-17T15:51:40.244Z,48.90
2022-10-17T15:54:06.422Z,48.30
2022-10-17T15:56:39.815Z,48.30
2022-10-17T15:59:17.254Z,48.30
2022-10-17T16:01:43.853Z,48.30
2022-10-17T16:04:14.030Z,48.30
2022-10-17T16:06:40.578Z,48.30
2022-10-17T16:09:06.809Z,48.40
2022-10-17T16:11:35.659Z,48.30
2022-10-17T16:14:21.026Z,48.30
2022-10-17T16:16:47.264Z,48.30
2022-10-17T16:19:13.403Z,48.30
2022-10-17T16:21:40.864Z,48.30
2022-10-17T16:24:12.249Z,48.30
2022-10-17T16:26:39.743Z,48.30
2022-10-17T16:29:05.919Z,48.30
2022-10-17T16:31:35.001Z,48.30
2022-10-17T16:34:03.246Z,48.30
2022-10-17T16:36:29.616Z,48.30
2022-10-17T16:38:55.733Z,48.30
2022-10-17T16:41:25.831Z,48.30
2022-10-17T16:43:53.743Z,48.30
2022-10-17T16:46:21.314Z,48.30
2022-10-17T16:48:48.798Z,48.30
2022-10-17T16:51:17.524Z,48.30
2022-10-17T16:53:44.367Z,48.30
2022-10-17T16:56:13.167Z,48.30
2022-10-17T16:58:40.498Z,48.30
2022-10-17T17:01:10.131Z,48.30
2022-10-17T17:03:37.789Z,48.20
2022-10-17T17:06:05.567Z,48.10
2022-10-17T17:08:38.393Z,48.10
2022-10-17T17:11:09.635Z,48.00
2022-10-17T17:13:36.438Z,48.50
2022-10-17T17:16:05.161Z,47.80
2022-10-17T17:18:31.604Z,47.80
2022-10-17T17:21:02.672Z,47.80
2022-10-17T17:23:29.789Z,47.80
2022-10-17T17:25:57.483Z,47.70
2022-10-17T17:28:25.427Z,47.70
2022-10-17T17:30:52.098Z,47.60
2022-10-17T17:33:18.200Z,47.50
2022-10-17T17:35:44.455Z,47.50
2022-10-17T17:38:10.561Z,47.40
2022-10-17T17:40:36.660Z,47.40
2022-10-17T17:43:02.703Z,47.40
2022-10-17T17:45:28.795Z,48.00
2022-10-17T17:47:55.060Z,47.20
2022-10-17T17:50:21.092Z,47.20
2022-10-17T17:52:50.018Z,47.20
2022-10-17T17:55:16.246Z,47.20
2022-10-17T17:57:42.293Z,47.10
2022-10-17T18:00:08.950Z,47.20
2022-10-17T18:02:35.118Z,47.10
2022-10-17T18:05:01.419Z,47.00
2022-10-17T18:07:27.478Z,47.00
2022-10-17T18:09:54.213Z,47.00
2022-10-17T18:12:20.729Z,47.00
2022-10-17T18:14:47.340Z,46.90
2022-10-17T18:17:13.461Z,47.00
2022-10-17T18:19:39.525Z,47.00
2022-10-17T18:22:05.804Z,46.90
2022-10-17T18:24:31.887Z,46.90
2022-10-17T18:26:59.374Z,46.90
2022-10-17T18:29:26.759Z,46.80
2022-10-17T18:31:52.872Z,46.80
2022-10-17T18:34:18.971Z,46.80
2022-10-17T18:36:45.120Z,46.70
2022-10-17T18:39:11.182Z,46.70
2022-10-17T18:41:37.406Z,46.80
2022-10-17T18:44:04.288Z,46.80
2022-10-17T18:46:40.014Z,46.70
2022-10-17T18:49:11.215Z,47.30
2022-10-17T18:51:37.301Z,46.70
2022-10-17T18:54:03.974Z,46.60
2022-10-17T18:56:31.057Z,46.70
2022-10-17T18:58:57.299Z,46.60
2022-10-17T19:01:26.770Z,46.50
2022-10-17T19:03:57.095Z,46.60
2022-10-17T19:06:30.937Z,46.60
2022-10-17T19:09:01.653Z,46.60
2022-10-17T19:11:29.770Z,46.60
2022-10-17T19:13:58.024Z,46.50
2022-10-17T19:16:30.711Z,46.50
2022-10-17T19:18:59.602Z,46.50
2022-10-17T19:21:26.331Z,46.40
2022-10-17T19:24:04.754Z,46.50
2022-10-17T19:26:34.340Z,46.50
2022-10-17T19:29:01.229Z,46.40
2022-10-17T19:31:31.013Z,46.40
2022-10-17T19:33:58.144Z,46.40
2022-10-17T19:36:30.400Z,46.40
2022-10-17T19:39:01.700Z,46.40
2022-10-17T19:41:28.120Z,46.40
2022-10-17T19:43:54.406Z,46.30
2022-10-17T19:46:22.881Z,46.40
2022-10-17T19:48:50.667Z,46.40
2022-10-17T19:51:18.818Z,46.30
2022-10-17T19:53:45.714Z,46.30
2022-10-17T19:56:12.385Z,46.40
2022-10-17T19:58:45.822Z,46.30
2022-10-17T20:01:17.753Z,46.30
2022-10-17T20:03:43.972Z,46.30
2022-10-17T20:06:10.441Z,46.20
2022-10-17T20:08:37.866Z,46.30
2022-10-17T20:11:10.482Z,46.30
2022-10-17T20:13:37.442Z,46.30
2022-10-17T20:16:05.452Z,46.30
2022-10-17T20:18:32.289Z,46.30
2022-10-17T20:21:10.153Z,46.30
2022-10-17T20:23:36.702Z,46.30
2022-10-17T20:26:08.724Z,46.20
2022-10-17T20:28:45.651Z,46.20
2022-10-17T20:31:12.652Z,46.20
2022-10-17T20:33:40.783Z,46.20
2022-10-17T20:36:09.065Z,46.20
2022-10-17T20:38:35.598Z,46.10
2022-10-17T20:41:03.669Z,46.20
2022-10-17T20:43:29.868Z,46.20
2022-10-17T20:46:03.522Z,46.30
2022-10-17T20:48:34.719Z,46.20
2022-10-17T20:51:07.084Z,46.10
2022-10-17T20:53:36.910Z,46.10
2022-10-17T20:56:18.110Z,46.10
2022-10-17T20:58:44.245Z,46.10
2022-10-17T21:01:10.647Z,46.10
2022-10-17T21:03:40.995Z,46.10
2022-10-17T21:06:10.524Z,46.10
2022-10-17T21:08:36.744Z,46.10
2022-10-17T21:11:07.284Z,46.10
2022-10-17T21:13:33.352Z,46.10
2022-10-17T21:16:07.465Z,46.10
2022-10-17T21:18:33.790Z,46.00
2022-10-17T21:21:10.584Z,46.00
2022-10-17T21:23:37.553Z,46.00
2022-10-17T21:26:05.276Z,46.00
2022-10-17T21:28:31.972Z,46.00
2022-10-17T21:31:13.644Z,46.00
2022-10-17T21:33:41.054Z,46.60
2022-10-17T21:36:08.455Z,46.00
2022-10-17T21:38:38.255Z,46.00
2022-10-17T21:41:05.913Z,46.00
2022-10-17T21:43:33.173Z,46.00
2022-10-17T21:46:04.661Z,46.00
2022-10-17T21:48:30.955Z,46.00
2022-10-17T21:50:59.398Z,45.90
2022-10-17T21:53:25.575Z,46.00
2022-10-17T21:55:51.749Z,46.00
2022-10-17T21:58:18.954Z,45.90
2022-10-17T22:00:45.020Z,45.90
2022-10-17T22:03:14.389Z,45.90
2022-10-17T22:05:40.832Z,45.90
2022-10-17T22:08:07.395Z,45.90
2022-10-17T22:10:36.786Z,45.90
2022-10-17T22:13:04.819Z,45.90
2022-10-17T22:15:31.382Z,45.90
2022-10-17T22:17:57.458Z,45.90
2022-10-17T22:20:23.563Z,45.90
2022-10-17T22:22:49.665Z,45.80
2022-10-17T22:25:15.753Z,45.90
2022-10-17T22:27:41.795Z,45.90
2022-10-17T22:30:08.706Z,45.80
2022-10-17T22:32:34.891Z,45.80
2022-10-17T22:35:00.942Z,45.80
2022-10-17T22:37:27.011Z,45.90
2022-10-17T22:39:53.195Z,45.80
2022-10-17T22:42:19.346Z,45.80
2022-10-17T22:44:45.952Z,45.80
2022-10-17T22:47:12.125Z,45.80
2022-10-17T22:49:38.198Z,45.80
2022-10-17T22:52:04.453Z,45.80
2022-10-17T22:54:30.561Z,45.80
2022-10-17T22:56:56.755Z,45.80
2022-10-17T22:59:22.975Z,45.80
2022-10-17T23:01:49.107Z,45.80
2022-10-17T23:04:15.195Z,45.80
2022-10-17T23:06:41.784Z,45.80
2022-10-17T23:09:08.066Z,45.80
2022-10-17T23:11:34.231Z,45.80
2022-10-17T23:14:00.332Z,45.80
2022-10-17T23:16:26.402Z,45.80
2022-10-17T23:18:54.288Z,45.70
2022-10-17T23:21:20.355Z,45.70
2022-10-17T23:23:46.496Z,45.80
2022-10-17T23:26:13.660Z,46.40
2022-10-17T23:28:40.982Z,45.70
2022-10-17T23:31:16.976Z,45.70
2022-10-17T23:33:44.338Z,45.70
2022-10-17T23:36:12.771Z,45.70
2022-10-17T23:38:40.004Z,45.60
2022-10-17T23:41:06.559Z,45.60
2022-10-17T23:43:33.618Z,45.70
2022-10-17T23:46:04.076Z,45.70
2022-10-17T23:48:30.306Z,45.70
2022-10-17T23:50:56.645Z,45.60
2022-10-17T23:53:23.525Z,45.60
2022-10-17T23:55:49.907Z,45.70
2022-10-17T23:58:16.490Z,45.60
